createdAt,value
2023-01-04T00:01:11.760Z,12.38
2023-01-04T00:03:39.756Z,12.48
2023-01-04T00:06:07.914Z,10.45
2023-01-04T00:08:35.626Z,7.18
2023-01-04T00:11:08.651Z,10.88
2023-01-04T00:13:36.016Z,9.50
2023-01-04T00:16:16.041Z,7.93
2023-01-04T00:21:14.997Z,8.82
2023-01-04T00:23:43.835Z,10.50
2023-01-04T00:26:22.600Z,8.63
2023-01-04T00:28:56.489Z,9.30
2023-01-04T00:31:24.938Z,8.35
2023-01-04T00:34:00.850Z,7.72
2023-01-04T00:36:28.857Z,7.72
2023-01-04T00:39:07.895Z,8.45
2023-01-04T00:44:29.174Z,9.85
2023-01-04T00:46:56.575Z,7.85
2023-01-04T00:49:24.030Z,9.43
2023-01-04T00:51:51.544Z,6.85
2023-01-04T00:54:19.354Z,12.40
2023-01-04T00:56:46.735Z,11.38
2023-01-04T00:59:15.481Z,8.25
2023-01-04T01:01:43.804Z,9.00
2023-01-04T01:04:15.944Z,10.73
2023-01-04T01:06:43.850Z,8.40
2023-01-04T01:09:11.560Z,8.45
2023-01-04T01:11:39.724Z,8.15
2023-01-04T01:14:08.535Z,11.20
2023-01-04T01:16:54.475Z,12.88
2023-01-04T01:19:23.389Z,8.20
2023-01-04T01:21:50.658Z,10.40
2023-01-04T01:24:19.135Z,6.65
2023-01-04T01:26:46.648Z,9.27
2023-01-04T01:29:14.017Z,9.65
2023-01-04T01:31:41.818Z,12.55
2023-01-04T01:34:09.676Z,7.05
2023-01-04T01:36:37.723Z,9.38
2023-01-04T01:39:06.122Z,9.20
2023-01-04T01:41:34.970Z,9.13
2023-01-04T01:44:24.245Z,10.63
2023-01-04T01:46:52.915Z,7.18
2023-01-04T01:49:30.895Z,10.77
2023-01-04T01:52:02.241Z,10.38
2023-01-04T01:54:39.812Z,7.10
2023-01-04T01:57:08.179Z,8.60
2023-01-04T01:59:37.043Z,8.95
2023-01-04T02:02:04.393Z,8.50
2023-01-04T02:04:32.309Z,8.45
2023-01-04T02:06:59.919Z,9.00
2023-01-04T02:09:27.293Z,10.55
2023-01-04T02:11:54.634Z,6.88
2023-01-04T02:14:27.716Z,7.85
2023-01-04T02:16:58.019Z,10.23
2023-01-04T02:19:37.292Z,9.60
2023-01-04T02:22:16.664Z,7.97
2023-01-04T02:24:49.765Z,11.53
2023-01-04T02:27:23.625Z,12.43
2023-01-04T02:30:21.590Z,9.77
2023-01-04T02:33:03.828Z,7.43
2023-01-04T02:35:59.203Z,10.80
2023-01-04T02:39:11.312Z,13.63
2023-01-04T02:41:47.445Z,11.18
2023-01-04T02:44:53.185Z,15.35
2023-01-04T02:47:53.436Z,10.32
2023-01-04T02:53:14.022Z,4.47
2023-01-04T02:55:55.685Z,8.93
2023-01-04T02:59:15.725Z,13.77
2023-01-04T03:02:28.148Z,9.20
2023-01-04T03:05:34.726Z,10.60
2023-01-04T03:08:11.079Z,7.78
2023-01-04T03:10:49.423Z,8.98
2023-01-04T03:13:25.678Z,11.38
2023-01-04T03:15:55.815Z,9.15
2023-01-04T03:20:52.950Z,8.82
2023-01-04T03:23:41.249Z,7.68
2023-01-04T03:26:33.744Z,6.85
2023-01-04T03:29:26.025Z,9.57
2023-01-04T03:32:16.259Z,7.28
2023-01-04T03:37:32.913Z,11.05
2023-01-04T03:40:28.992Z,12.05
2023-01-04T03:43:30.010Z,10.05
2023-01-04T03:46:22.776Z,7.18
2023-01-04T03:49:02.800Z,8.05
2023-01-04T03:51:34.915Z,8.75
2023-01-04T03:54:18.569Z,9.45
2023-01-04T03:56:46.534Z,7.18
2023-01-04T03:59:13.954Z,5.97
2023-01-04T04:01:43.163Z,11.35
2023-01-04T04:04:29.795Z,6.28
2023-01-04T04:07:15.726Z,7.60
2023-01-04T04:09:43.133Z,6.75
2023-01-04T04:12:10.410Z,5.28
2023-01-04T04:14:38.254Z,6.85
2023-01-04T04:17:05.516Z,8.32
2023-01-04T04:19:32.926Z,8.55
2023-01-04T04:22:00.285Z,5.95
2023-01-04T04:24:27.671Z,6.25
2023-01-04T04:26:55.986Z,9.23
2023-01-04T04:29:24.334Z,8.70
2023-01-04T04:31:52.033Z,10.13
2023-01-04T04:34:19.530Z,7.50
2023-01-04T04:36:46.783Z,6.22
2023-01-04T04:39:14.507Z,6.15
2023-01-04T04:41:42.335Z,8.15
2023-01-04T04:44:18.331Z,5.88
2023-01-04T04:46:46.899Z,5.78
2023-01-04T04:49:14.771Z,9.05
2023-01-04T04:51:42.748Z,10.25
2023-01-04T04:54:11.249Z,8.10
2023-01-04T04:56:38.975Z,5.32
2023-01-04T04:59:06.869Z,11.75
2023-01-04T05:01:34.412Z,6.25
2023-01-04T05:04:01.797Z,11.52
2023-01-04T05:06:29.232Z,7.53
2023-01-04T05:08:56.496Z,6.45
2023-01-04T05:11:42.462Z,5.03
2023-01-04T05:14:10.161Z,6.63
2023-01-04T05:16:37.549Z,6.03
2023-01-04T05:19:05.051Z,5.60
2023-01-04T05:21:32.419Z,5.88
2023-01-04T05:23:59.779Z,5.50
2023-01-04T05:26:27.193Z,8.70
2023-01-04T05:28:54.536Z,7.05
2023-01-04T05:31:22.220Z,7.85
2023-01-04T05:33:49.618Z,5.78
2023-01-04T05:36:16.917Z,5.68
2023-01-04T05:38:44.239Z,6.30
2023-01-04T05:41:30.296Z,2.70
2023-01-04T05:43:57.673Z,4.95
2023-01-04T05:46:25.036Z,4.28
2023-01-04T05:48:52.376Z,4.68
2023-01-04T05:51:19.776Z,7.10
2023-01-04T05:53:47.167Z,3.45
2023-01-04T05:56:14.458Z,3.15
2023-01-04T05:58:41.987Z,6.22
2023-01-04T06:01:09.390Z,4.10
2023-01-04T06:03:36.681Z,2.50
2023-01-04T06:06:04.115Z,4.05
2023-01-04T06:08:31.440Z,5.20
2023-01-04T06:10:58.722Z,3.80
2023-01-04T06:13:26.543Z,4.18
2023-01-04T06:15:53.834Z,7.15
2023-01-04T06:18:21.158Z,4.13
2023-01-04T06:20:51.191Z,3.72
2023-01-04T06:23:18.561Z,2.72
2023-01-04T06:25:45.833Z,3.50
2023-01-04T06:28:13.045Z,4.78
2023-01-04T06:30:40.373Z,4.47
2023-01-04T06:33:07.680Z,5.60
2023-01-04T06:35:36.077Z,3.05
2023-01-04T06:38:03.337Z,3.95
2023-01-04T06:40:30.600Z,3.20
2023-01-04T06:42:57.905Z,3.30
2023-01-04T06:45:25.346Z,4.40
2023-01-04T06:47:52.598Z,2.08
2023-01-04T06:50:19.880Z,2.28
2023-01-04T06:52:47.249Z,2.40
2023-01-04T06:55:14.660Z,3.35
2023-01-04T06:57:41.975Z,2.63
2023-01-04T07:00:10.056Z,4.90
2023-01-04T07:02:37.579Z,4.10
2023-01-04T07:05:05.486Z,3.83
2023-01-04T07:07:33.454Z,5.72
2023-01-04T07:10:07.054Z,1.95
2023-01-04T07:12:38.422Z,5.95
2023-01-04T07:15:38.396Z,4.43
2023-01-04T07:17:54.632Z,5.88
2023-01-04T07:20:21.972Z,3.00
2023-01-04T07:22:49.294Z,3.25
2023-01-04T07:25:16.775Z,3.17
2023-01-04T07:27:44.171Z,1.63
2023-01-04T07:30:12.121Z,6.70
2023-01-04T07:32:39.368Z,2.28
2023-01-04T07:35:07.350Z,2.25
2023-01-04T07:37:34.909Z,3.53
2023-01-04T07:40:02.445Z,4.45
2023-01-04T07:42:29.895Z,3.75
2023-01-04T07:44:57.164Z,5.15
2023-01-04T07:47:24.581Z,5.35
2023-01-04T07:49:51.860Z,5.57
2023-01-04T07:52:19.292Z,4.28
2023-01-04T07:54:46.648Z,2.88
2023-01-04T07:57:14.201Z,3.70
2023-01-04T07:59:41.652Z,4.43
2023-01-04T08:02:13.391Z,2.70
2023-01-04T08:04:40.900Z,6.00
2023-01-04T08:07:08.388Z,4.20
2023-01-04T08:09:37.121Z,3.25
2023-01-04T08:12:04.861Z,5.75
2023-01-04T08:14:32.216Z,7.47
2023-01-04T08:16:59.532Z,10.70
2023-01-04T08:19:27.155Z,5.85
2023-01-04T08:22:14.678Z,12.98
2023-01-04T08:24:42.380Z,13.75
2023-01-04T08:27:11.062Z,11.60
2023-01-04T08:29:38.808Z,10.32
2023-01-04T08:32:06.487Z,11.90
2023-01-04T08:34:33.953Z,10.80
2023-01-04T08:37:01.405Z,9.68
2023-01-04T08:39:29.671Z,9.07
2023-01-04T08:42:04.804Z,5.78
2023-01-04T08:44:38.789Z,8.30
2023-01-04T08:47:06.356Z,5.03
2023-01-04T08:49:33.741Z,7.22
2023-01-04T08:52:01.188Z,6.88
2023-01-04T08:54:28.869Z,9.43
2023-01-04T08:56:56.279Z,5.30
2023-01-04T08:59:23.637Z,8.13
2023-01-04T09:01:51.052Z,4.25
2023-01-04T09:04:18.418Z,3.17
2023-01-04T09:06:45.869Z,7.25
2023-01-04T09:09:14.468Z,25.20
2023-01-04T09:11:42.351Z,7.85
2023-01-04T09:14:10.601Z,3.83
2023-01-04T09:16:38.669Z,3.88
2023-01-04T09:19:06.656Z,5.10
2023-01-04T09:21:34.079Z,6.65
2023-01-04T09:24:01.486Z,8.65
2023-01-04T09:26:28.949Z,13.05
2023-01-04T09:28:56.538Z,5.20
2023-01-04T09:31:29.143Z,6.40
2023-01-04T09:34:15.165Z,7.65
2023-01-04T09:36:44.787Z,5.95
2023-01-04T09:39:21.083Z,7.03
2023-01-04T09:41:58.206Z,5.38
2023-01-04T09:47:43.511Z,4.35
2023-01-04T09:50:19.056Z,4.40
2023-01-04T09:52:56.653Z,5.63
2023-01-04T09:55:37.268Z,4.82
2023-01-04T09:58:14.303Z,5.50
2023-01-04T10:00:45.615Z,7.03
2023-01-04T10:03:24.040Z,9.32
2023-01-04T10:05:54.142Z,6.55
2023-01-04T10:08:21.849Z,5.57
2023-01-04T10:11:23.380Z,8.82
2023-01-04T10:14:15.198Z,5.80
2023-01-04T10:17:44.267Z,4.15
2023-01-04T10:23:03.257Z,5.57
2023-01-04T10:25:39.624Z,4.68
2023-01-04T10:28:20.201Z,5.25
2023-01-04T10:31:39.492Z,5.60
2023-01-04T10:34:02.394Z,5.80
2023-01-04T10:36:36.441Z,5.93
2023-01-04T10:39:06.416Z,5.25
2023-01-04T10:41:38.902Z,3.22
2023-01-04T10:44:44.569Z,3.53
2023-01-04T10:47:17.385Z,4.53
2023-01-04T10:49:49.310Z,6.95
2023-01-04T10:52:54.236Z,5.80
2023-01-04T10:56:23.802Z,5.95
2023-01-04T10:58:46.286Z,4.13
2023-01-04T11:01:24.588Z,5.05
2023-01-04T11:04:21.439Z,7.60
2023-01-04T11:06:50.632Z,5.03
2023-01-04T11:09:25.395Z,12.20
2023-01-04T11:11:55.533Z,7.10
2023-01-04T11:14:24.473Z,4.28
2023-01-04T11:16:54.703Z,7.00
2023-01-04T11:19:22.650Z,5.32
2023-01-04T11:22:03.086Z,8.13
2023-01-04T11:29:47.163Z,3.97
2023-01-04T11:32:34.831Z,6.15
2023-01-04T11:35:02.297Z,4.70
2023-01-04T11:37:35.462Z,4.80
2023-01-04T11:40:18.428Z,7.00
2023-01-04T11:42:48.781Z,10.45
2023-01-04T11:45:22.567Z,24.25
2023-01-04T11:47:52.951Z,18.02
2023-01-04T11:54:12.264Z,7.97
2023-01-04T11:56:41.290Z,32.83
2023-01-04T11:59:08.800Z,27.63
2023-01-04T12:01:44.909Z,8.80
2023-01-04T12:04:35.681Z,6.30
2023-01-04T12:07:07.281Z,2.85
2023-01-04T12:09:34.910Z,5.03
2023-01-04T12:12:02.208Z,4.65
2023-01-04T12:14:32.581Z,6.03
2023-01-04T12:17:23.452Z,7.32
2023-01-04T12:19:54.675Z,10.90
2023-01-04T12:22:32.325Z,5.07
2023-01-04T12:25:01.286Z,6.35
2023-01-04T12:27:28.768Z,5.82
2023-01-04T12:30:01.355Z,8.10
2023-01-04T12:32:28.824Z,4.43
2023-01-04T12:34:56.162Z,5.10
2023-01-04T12:37:45.938Z,7.30
2023-01-04T12:40:46.618Z,6.35
2023-01-04T12:43:16.769Z,9.07
2023-01-04T12:46:10.391Z,2.78
2023-01-04T12:48:56.523Z,8.95
2023-01-04T12:51:32.880Z,6.70
2023-01-04T12:54:06.085Z,6.00
2023-01-04T12:57:11.606Z,3.33
2023-01-04T12:59:57.167Z,8.23
2023-01-04T13:02:27.769Z,5.28
2023-01-04T13:05:43.610Z,4.13
2023-01-04T13:07:59.093Z,18.75
2023-01-04T13:10:36.048Z,23.17
2023-01-04T13:13:32.503Z,14.60
2023-01-04T13:16:09.819Z,7.80
2023-01-04T13:18:47.885Z,6.60
2023-01-04T13:21:31.452Z,4.72
2023-01-04T13:24:05.110Z,4.10
2023-01-04T13:26:43.310Z,8.02
2023-01-04T13:29:31.299Z,6.78
2023-01-04T13:32:04.420Z,5.78
2023-01-04T13:34:32.405Z,4.07
2023-01-04T13:37:17.233Z,5.35
2023-01-04T13:39:52.294Z,16.70
2023-01-04T13:42:41.017Z,8.77
2023-01-04T13:45:27.051Z,8.80
2023-01-04T13:47:59.565Z,14.38
2023-01-04T13:50:49.712Z,9.50
2023-01-04T13:53:21.179Z,6.35
2023-01-04T13:55:53.516Z,11.05
2023-01-04T13:58:23.209Z,5.60
2023-01-04T14:01:08.244Z,8.73
2023-01-04T14:03:49.134Z,10.00
2023-01-04T14:06:34.296Z,8.95
2023-01-04T14:09:02.654Z,4.97
2023-01-04T14:12:08.319Z,8.65
2023-01-04T14:14:58.896Z,7.95
2023-01-04T14:19:54.609Z,2.92
2023-01-04T14:22:40.249Z,4.30
2023-01-04T14:25:36.976Z,3.08
2023-01-04T14:28:33.471Z,4.45
2023-01-04T14:31:04.404Z,7.95
2023-01-04T14:33:39.296Z,4.55
2023-01-04T14:36:06.677Z,2.03
2023-01-04T14:38:44.233Z,1.55
2023-01-04T14:41:12.660Z,4.30
2023-01-04T14:43:48.892Z,3.13
2023-01-04T14:46:16.648Z,6.30
2023-01-04T14:48:44.011Z,6.10
2023-01-04T14:51:16.116Z,5.65
2023-01-04T14:53:43.827Z,3.17
2023-01-04T14:56:16.041Z,6.25
2023-01-04T14:58:44.033Z,3.65
2023-01-04T15:01:12.380Z,3.17
2023-01-04T15:03:39.874Z,3.15
2023-01-04T15:06:07.615Z,2.60
2023-01-04T15:08:34.900Z,3.47
2023-01-04T15:11:02.524Z,4.50
2023-01-04T15:13:38.783Z,3.53
2023-01-04T15:16:09.408Z,2.20
2023-01-04T15:18:37.571Z,4.57
2023-01-04T15:21:05.237Z,2.15
2023-01-04T15:23:32.792Z,3.88
2023-01-04T15:26:01.968Z,2.30
2023-01-04T15:28:29.310Z,4.63
2023-01-04T15:30:58.743Z,2.67
2023-01-04T15:33:32.213Z,3.95
2023-01-04T15:36:01.410Z,4.93
2023-01-04T15:38:28.777Z,3.65
2023-01-04T15:41:04.042Z,2.30
2023-01-04T15:43:36.378Z,2.22
2023-01-04T15:46:09.269Z,3.00
2023-01-04T15:48:37.004Z,5.70
2023-01-04T15:51:07.715Z,5.57
2023-01-04T15:53:37.785Z,5.65
2023-01-04T15:56:07.316Z,3.90
2023-01-04T15:58:34.763Z,6.72
2023-01-04T16:01:10.131Z,3.55
2023-01-04T16:03:38.021Z,4.05
2023-01-04T16:06:11.155Z,8.23
2023-01-04T16:08:39.095Z,4.97
2023-01-04T16:11:20.514Z,5.28
2023-01-04T16:13:48.777Z,3.85
2023-01-04T16:16:16.844Z,4.43
2023-01-04T16:18:46.360Z,3.58
2023-01-04T16:21:14.581Z,2.30
2023-01-04T16:23:42.096Z,3.50
2023-01-04T16:26:18.607Z,3.05
2023-01-04T16:28:55.483Z,3.70
2023-01-04T16:31:23.132Z,3.85
2023-01-04T16:33:53.785Z,3.15
2023-01-04T16:36:21.253Z,2.85
2023-01-04T16:38:48.610Z,3.28
2023-01-04T16:41:17.950Z,4.07
2023-01-04T16:43:50.554Z,3.13
2023-01-04T16:46:21.101Z,2.47
2023-01-04T16:48:51.064Z,2.10
2023-01-04T16:51:18.964Z,4.30
2023-01-04T16:53:46.448Z,3.00
2023-01-04T16:56:16.362Z,3.50
2023-01-04T17:01:20.763Z,2.08
2023-01-04T17:03:48.755Z,3.28
2023-01-04T17:06:21.766Z,3.40
2023-01-04T17:08:50.919Z,1.85
2023-01-04T17:14:10.852Z,3.05
2023-01-04T17:16:38.650Z,2.73
2023-01-04T17:19:05.907Z,2.72
2023-01-04T17:21:35.031Z,4.40
2023-01-04T17:24:03.416Z,4.50
2023-01-04T17:26:32.313Z,2.10
2023-01-04T17:29:00.796Z,2.20
2023-01-04T17:31:30.972Z,1.85
2023-01-04T17:33:58.503Z,2.70
2023-01-04T17:36:26.306Z,3.22
2023-01-04T17:38:53.927Z,2.35
2023-01-04T17:41:23.716Z,2.92
2023-01-04T17:44:00.481Z,2.58
2023-01-04T17:46:31.887Z,2.95
2023-01-04T17:51:50.612Z,4.43
2023-01-04T17:54:18.158Z,3.40
2023-01-04T17:56:51.442Z,3.22
2023-01-04T17:59:18.819Z,5.75
2023-01-04T18:01:46.368Z,3.33
2023-01-04T18:04:14.006Z,3.65
2023-01-04T18:06:41.367Z,4.45
2023-01-04T18:09:09.293Z,3.78
2023-01-04T18:11:37.635Z,4.70
2023-01-04T18:14:09.752Z,4.05
2023-01-04T18:16:56.956Z,5.18
2023-01-04T18:19:29.920Z,5.57
2023-01-04T18:21:57.892Z,4.50
2023-01-04T18:24:41.639Z,6.20
2023-01-04T18:27:29.043Z,3.60
2023-01-04T18:30:00.255Z,4.57
2023-01-04T18:32:28.211Z,6.65
2023-01-04T18:34:55.378Z,3.83
2023-01-04T18:37:23.215Z,4.45
2023-01-04T18:39:50.645Z,7.45
2023-01-04T18:42:18.053Z,8.55
2023-01-04T18:44:49.760Z,5.53
2023-01-04T18:47:21.397Z,6.35
2023-01-04T18:49:51.417Z,5.05
2023-01-04T18:52:19.797Z,5.32
2023-01-04T18:54:48.566Z,6.68
2023-01-04T18:57:16.051Z,5.07
2023-01-04T18:59:43.498Z,3.97
2023-01-04T19:02:16.749Z,4.13
2023-01-04T19:04:44.620Z,2.92
2023-01-04T19:07:11.922Z,4.20
2023-01-04T19:09:39.602Z,5.65
2023-01-04T19:12:07.176Z,5.57
2023-01-04T19:14:34.476Z,2.58
2023-01-04T19:17:01.872Z,4.95
2023-01-04T19:19:29.188Z,4.82
2023-01-04T19:21:56.503Z,6.53
2023-01-04T19:24:23.879Z,4.53
2023-01-04T19:26:52.419Z,4.75
2023-01-04T19:29:19.701Z,3.88
2023-01-04T19:31:46.987Z,5.63
2023-01-04T19:34:14.288Z,4.13
2023-01-04T19:36:41.510Z,3.50
2023-01-04T19:39:09.558Z,4.85
2023-01-04T19:41:38.141Z,11.63
2023-01-04T19:44:08.142Z,5.88
2023-01-04T19:46:38.124Z,5.13
2023-01-04T19:49:14.855Z,4.20
2023-01-04T19:51:47.384Z,5.82
2023-01-04T19:54:18.549Z,5.13
2023-01-04T19:56:50.566Z,7.13
2023-01-04T19:59:17.890Z,6.68
2023-01-04T20:01:45.347Z,7.00
2023-01-04T20:04:13.876Z,7.63
2023-01-04T20:06:41.382Z,4.25
2023-01-04T20:09:08.705Z,3.83
2023-01-04T20:11:36.116Z,6.68
2023-01-04T20:14:03.922Z,4.05
2023-01-04T20:16:31.287Z,8.13
2023-01-04T20:18:58.706Z,7.20
2023-01-04T20:21:26.060Z,8.95
2023-01-04T20:23:53.378Z,11.50
2023-01-04T20:26:20.792Z,8.30
2023-01-04T20:28:48.844Z,9.65
2023-01-04T20:31:18.371Z,5.68
2023-01-04T20:33:47.567Z,6.45
2023-01-04T20:36:17.829Z,10.05
2023-01-04T20:38:46.862Z,7.32
2023-01-04T20:41:17.112Z,6.25
2023-01-04T20:46:15.110Z,5.93
2023-01-04T20:48:42.709Z,5.22
2023-01-04T20:51:17.587Z,6.28
2023-01-04T20:53:45.003Z,4.95
2023-01-04T20:56:23.836Z,7.55
2023-01-04T20:58:51.650Z,4.82
2023-01-04T21:01:20.748Z,5.50
2023-01-04T21:03:48.308Z,8.82
2023-01-04T21:06:17.425Z,6.07
2023-01-04T21:08:45.363Z,7.07
2023-01-04T21:11:13.355Z,4.57
2023-01-04T21:13:40.853Z,6.40
2023-01-04T21:16:08.820Z,5.75
2023-01-04T21:18:36.310Z,8.02
2023-01-04T21:21:12.107Z,4.85
2023-01-04T21:23:41.049Z,6.88
2023-01-04T21:26:10.481Z,5.25
2023-01-04T21:28:37.837Z,4.38
2023-01-04T21:31:20.021Z,4.10
2023-01-04T21:33:48.237Z,5.63
2023-01-04T21:36:19.312Z,5.30
2023-01-04T21:38:57.322Z,5.85
2023-01-04T21:41:25.893Z,3.90
2023-01-04T21:43:55.423Z,2.67
2023-01-04T21:46:23.499Z,4.72
2023-01-04T21:48:57.131Z,4.07
2023-01-04T21:51:24.616Z,3.28
2023-01-04T21:53:51.807Z,3.15
2023-01-04T21:56:21.994Z,3.20
2023-01-04T22:01:17.661Z,2.30
2023-01-04T22:03:45.085Z,4.35
2023-01-04T22:06:14.120Z,2.05
2023-01-04T22:08:46.609Z,2.00
2023-01-04T22:11:16.052Z,2.90
2023-01-04T22:13:43.596Z,2.30
2023-01-04T22:16:14.331Z,3.50
2023-01-04T22:18:41.882Z,3.30
2023-01-04T22:21:13.999Z,2.28
2023-01-04T22:23:41.531Z,3.92
2023-01-04T22:26:09.052Z,2.25
2023-01-04T22:28:37.257Z,2.40
2023-01-04T22:31:07.006Z,1.48
2023-01-04T22:33:35.682Z,2.67
2023-01-04T22:36:06.158Z,2.30
2023-01-04T22:38:37.678Z,2.88
2023-01-04T22:41:07.488Z,7.72
2023-01-04T22:43:35.794Z,1.73
2023-01-04T22:46:05.441Z,2.90
2023-01-04T22:48:33.594Z,1.88
2023-01-04T22:51:06.581Z,1.20
2023-01-04T22:53:34.084Z,2.58
2023-01-04T22:56:18.978Z,2.40
2023-01-04T22:58:53.290Z,2.45
2023-01-04T23:01:22.987Z,2.45
2023-01-04T23:03:51.866Z,2.37
2023-01-04T23:06:19.762Z,1.58
2023-01-04T23:08:47.197Z,1.70
2023-01-04T23:11:17.403Z,1.65
2023-01-04T23:13:45.663Z,3.00
2023-01-04T23:16:15.106Z,6.45
2023-01-04T23:18:43.127Z,1.45
2023-01-04T23:21:10.538Z,2.15
2023-01-04T23:23:38.368Z,2.63
2023-01-04T23:26:13.616Z,2.60
2023-01-04T23:28:41.229Z,3.58
2023-01-04T23:31:10.909Z,2.85
2023-01-04T23:33:38.420Z,2.47
2023-01-04T23:36:10.188Z,2.20
2023-01-04T23:38:37.921Z,3.38
2023-01-04T23:41:05.954Z,3.08
2023-01-04T23:43:36.739Z,3.17
2023-01-04T23:46:08.648Z,1.35
2023-01-04T23:48:36.011Z,1.92
2023-01-04T23:51:03.467Z,2.17
2023-01-04T23:53:30.886Z,1.73
2023-01-04T23:56:04.349Z,1.88
2023-01-04T23:58:31.843Z,1.25
